METAR LSZS 271850Z AUTO 23008KT 9999 NSC M02/M07 Q1012=